Terminal Aerodrome Forecast
Issued by NWS Columbia, SC

Home | Current Version | Previous Version | Text Only | Print | Product List | Glossary On
Versions: 1 2 3 4 5 6 7 8 9 10 11 12 13 14 15 16 17 18 19 20 21 22 23 24 25
000
FTUS42 KCAE 092105 AAA
TAFCAE
TAF AMD
KCAE 092105Z 0921/1018 26017G23KT P6SM -SN BKN045 OVC060
     FM100000 26010G20KT P6SM OVC070
      TEMPO 1000/1002 -SN
     FM100700 27010KT P6SM SKC
     FM101100 27014G22KT P6SM SKC
     FM101500 27020G30KT P6SM SCT040=

USA.gov is the U.S. government's official web portal to all federal, state and local government web resources and services.